Time;durP1;ratioP1;P1;durP2;ratioP2;P2;SDS_P1;SDS_P2;PMS_P1;PMS_P2;Temp;Humidity;BMP_temperature;BMP_pressure;BME280_temperature;BME280_humidity;BME280_pressure;Samples;Min_cycle;Max_cycle;Signal;HPM_P1;HPM_P2
2022/07/14 00:01:32;;;;;;;7.68;2.45;;;14.50;99.90;;;;;;5033362;28;20396;-71
2022/07/14 00:04:00;;;;;;;13.60;1.98;;;14.50;99.90;;;;;;5040805;28;20088;-71
2022/07/14 00:06:25;;;;;;;11.65;4.25;;;14.50;99.90;;;;;;5043605;28;20044;-72
2022/07/14 00:08:51;;;;;;;8.98;2.72;;;14.40;99.90;;;;;;5041479;28;20033;-72
2022/07/14 00:11:17;;;;;;;16.23;3.10;;;14.50;99.90;;;;;;5044361;28;20041;-72
2022/07/14 00:13:42;;;;;;;14.00;3.08;;;14.50;99.90;;;;;;5041134;28;20040;-72
2022/07/14 00:16:08;;;;;;;9.43;2.92;;;14.40;99.90;;;;;;5042198;28;20051;-72
2022/07/14 00:18:34;;;;;;;10.43;2.67;;;14.40;99.90;;;;;;5041197;28;20225;-71
2022/07/14 00:20:59;;;;;;;8.73;2.47;;;14.30;99.90;;;;;;5043687;28;20556;-71
2022/07/14 00:23:25;;;;;;;9.95;2.72;;;14.30;99.90;;;;;;5042599;28;20080;-71
2022/07/14 00:25:51;;;;;;;7.43;2.40;;;14.20;99.90;;;;;;5043490;28;20056;-70
2022/07/14 00:28:17;;;;;;;7.43;3.47;;;14.00;99.90;;;;;;5040361;28;20049;-71
2022/07/14 00:30:45;;;;;;;7.88;2.45;;;13.90;99.90;;;;;;5040697;28;20041;-71
2022/07/14 00:33:11;;;;;;;9.80;4.07;;;14.00;99.90;;;;;;5026459;28;20049;-71
2022/07/14 00:35:36;;;;;;;10.55;2.88;;;13.90;99.90;;;;;;5075401;28;20060;-71
2022/07/14 00:38:04;;;;;;;12.85;3.20;;;13.80;99.90;;;;;;5042153;28;20045;-70
2022/07/14 00:40:30;;;;;;;12.70;2.15;;;13.90;99.90;;;;;;5043267;28;20048;-72
2022/07/14 00:42:55;;;;;;;11.00;3.88;;;13.80;99.90;;;;;;5042266;28;20549;-72
2022/07/14 00:45:22;;;;;;;11.60;2.40;;;13.90;99.90;;;;;;5041388;28;20087;-72
2022/07/14 00:47:48;;;;;;;6.40;3.20;;;13.90;99.90;;;;;;5043548;28;20061;-71
2022/07/14 00:50:17;;;;;;;12.27;5.05;;;13.80;99.90;;;;;;5043190;28;20051;-71
2022/07/14 00:52:48;;;;;;;31.60;4.70;;;13.70;99.90;;;;;;5042398;28;20032;-72
2022/07/14 00:55:15;;;;;;;12.02;2.97;;;13.70;99.90;;;;;;5044121;28;20041;-72
2022/07/14 00:57:41;;;;;;;6.53;2.35;;;13.70;99.90;;;;;;5072878;28;20037;-71
2022/07/14 01:00:09;;;;;;;5.72;2.20;;;13.70;99.90;;;;;;5042458;28;20048;-72
2022/07/14 01:02:35;;;;;;;12.35;3.50;;;13.70;99.90;;;;;;5042734;28;20543;-71
2022/07/14 01:05:01;;;;;;;11.15;2.72;;;13.70;99.90;;;;;;5041534;28;20131;-72
2022/07/14 01:07:27;;;;;;;9.52;2.47;;;13.60;99.90;;;;;;5042199;28;20044;-72
2022/07/14 01:09:52;;;;;;;10.57;4.00;;;13.60;99.90;;;;;;5039728;28;20419;-72
2022/07/14 01:12:18;;;;;;;10.75;4.13;;;13.60;99.90;;;;;;5076022;28;20086;-71
2022/07/14 01:14:45;;;;;;;8.75;2.95;;;13.50;99.90;;;;;;5042652;28;20037;-71
2022/07/14 01:17:11;;;;;;;12.73;3.00;;;13.40;99.90;;;;;;5041311;28;20333;-71
2022/07/14 01:19:37;;;;;;;10.00;2.83;;;13.40;99.90;;;;;;5042389;28;20049;-71
2022/07/14 01:22:04;;;;;;;9.48;2.83;;;13.50;99.90;;;;;;5042163;28;20415;-71
2022/07/14 01:24:30;;;;;;;15.82;4.85;;;13.40;99.90;;;;;;5042391;28;20049;-71
2022/07/14 01:26:56;;;;;;;11.57;3.28;;;13.40;99.90;;;;;;5042041;28;20040;-71
2022/07/14 01:29:24;;;;;;;10.38;2.42;;;13.30;99.90;;;;;;5042986;28;20044;-71
2022/07/14 01:31:50;;;;;;;9.07;3.13;;;13.40;99.90;;;;;;5042731;28;20033;-72
2022/07/14 01:34:16;;;;;;;6.95;3.58;;;13.40;99.90;;;;;;5044671;28;20037;-71
2022/07/14 01:36:42;;;;;;;16.05;3.85;;;13.40;99.90;;;;;;5040899;28;20063;-71
2022/07/14 01:39:07;;;;;;;8.75;3.00;;;13.50;99.90;;;;;;5041349;28;20049;-71
2022/07/14 01:41:34;;;;;;;8.02;3.45;;;13.40;99.90;;;;;;5041411;28;20037;-71
2022/07/14 01:44:01;;;;;;;8.93;3.75;;;13.30;99.90;;;;;;5042818;28;20087;-71
2022/07/14 01:46:26;;;;;;;10.02;3.03;;;13.20;99.90;;;;;;5041769;28;20044;-71
2022/07/14 01:48:52;;;;;;;9.15;2.85;;;13.20;99.90;;;;;;5039890;28;20053;-71
2022/07/14 01:51:18;;;;;;;11.90;3.88;;;13.20;99.90;;;;;;5055469;22;20414;-71
2022/07/14 01:53:44;;;;;;;5.70;2.72;;;13.00;99.90;;;;;;5033972;28;20044;-71
2022/07/14 01:56:11;;;;;;;5.97;2.28;;;13.10;99.90;;;;;;5033713;28;20060;-72
2022/07/14 01:58:37;;;;;;;6.13;2.80;;;13.10;99.90;;;;;;5045594;28;20072;-71
2022/07/14 02:03:47;;;;;;;4.90;2.72;;;13.00;99.90;;;;;;5046649;28;20049;-71
2022/07/14 02:06:13;;;;;;;9.18;3.22;;;12.90;99.90;;;;;;5045982;28;20047;-71
2022/07/14 02:08:39;;;;;;;11.05;3.33;;;12.90;99.90;;;;;;5028954;28;20403;-71
2022/07/14 02:13:49;;;;;;;9.50;3.53;;;13.10;99.90;;;;;;5046930;28;20487;-70
2022/07/14 02:16:14;;;;;;;9.77;3.92;;;12.90;99.90;;;;;;5045804;28;20052;-71
2022/07/14 02:18:40;;;;;;;7.53;3.17;;;12.80;99.90;;;;;;5044793;28;20049;-71
2022/07/14 02:21:06;;;;;;;10.43;3.22;;;12.90;99.90;;;;;;5042632;28;20049;-71
2022/07/14 02:23:31;;;;;;;7.07;4.03;;;12.70;99.90;;;;;;5046930;28;20051;-71
2022/07/14 02:25:57;;;;;;;11.25;2.95;;;12.80;99.90;;;;;;5045615;28;20033;-71
2022/07/14 02:28:23;;;;;;;10.90;3.28;;;12.80;99.90;;;;;;5048160;28;20517;-70
2022/07/14 02:30:48;;;;;;;7.30;2.72;;;12.90;99.90;;;;;;5045119;28;20041;-72
2022/07/14 02:33:14;;;;;;;7.90;3.10;;;12.80;99.90;;;;;;5044762;28;20045;-71
2022/07/14 02:35:40;;;;;;;5.50;2.80;;;12.70;99.90;;;;;;5045470;28;20048;-71
2022/07/14 02:38:05;;;;;;;6.80;2.63;;;12.70;99.90;;;;;;5046372;28;20422;-71
2022/07/14 02:40:32;;;;;;;6.95;2.80;;;12.60;99.90;;;;;;5047096;28;20499;-71
2022/07/14 02:42:57;;;;;;;16.27;3.75;;;12.50;99.90;;;;;;5045492;28;20132;-71
2022/07/14 02:45:23;;;;;;;6.90;2.78;;;12.50;99.90;;;;;;5042150;28;20490;-71
2022/07/14 02:47:49;;;;;;;9.63;4.38;;;12.60;99.90;;;;;;5044029;28;20770;-72
2022/07/14 02:50:14;;;;;;;4.97;2.80;;;12.50;99.90;;;;;;5047644;28;20045;-70
2022/07/14 02:52:40;;;;;;;9.07;3.28;;;12.70;99.90;;;;;;5043210;28;20045;-71
2022/07/14 02:55:06;;;;;;;5.78;2.45;;;12.50;99.90;;;;;;5042834;28;20033;-70
2022/07/14 02:57:32;;;;;;;4.22;2.60;;;12.60;99.90;;;;;;5044246;28;20045;-71
2022/07/14 02:59:58;;;;;;;11.05;2.85;;;12.60;99.90;;;;;;5047009;28;20047;-71
2022/07/14 03:02:24;;;;;;;3.70;1.77;;;12.50;99.90;;;;;;5041912;28;20514;-71
2022/07/14 03:04:50;;;;;;;8.25;3.40;;;12.40;99.90;;;;;;5043981;28;20106;-72
2022/07/14 03:07:16;;;;;;;3.20;2.47;;;12.30;99.90;;;;;;5044123;28;20053;-71
2022/07/14 03:09:42;;;;;;;5.93;2.10;;;12.40;99.90;;;;;;5047483;28;20033;-71
2022/07/14 03:12:07;;;;;;;4.22;2.13;;;12.40;99.90;;;;;;5044687;28;20480;-71
2022/07/14 03:14:33;;;;;;;7.78;2.53;;;12.30;99.90;;;;;;5045069;28;20103;-71
2022/07/14 03:16:59;;;;;;;8.52;2.72;;;12.30;99.90;;;;;;5042490;28;20048;-71
2022/07/14 03:19:24;;;;;;;8.90;3.50;;;12.20;99.90;;;;;;5047364;28;20044;-71
2022/07/14 03:21:50;;;;;;;6.78;2.88;;;12.20;99.90;;;;;;5042676;28;20419;-71
2022/07/14 03:24:16;;;;;;;7.82;3.95;;;12.10;99.90;;;;;;5046064;28;20045;-71
2022/07/14 03:26:41;;;;;;;9.05;3.30;;;12.30;99.90;;;;;;5043569;28;20052;-71
2022/07/14 03:29:07;;;;;;;5.45;2.67;;;12.30;99.90;;;;;;5044701;28;20072;-71
2022/07/14 03:31:34;;;;;;;5.78;2.65;;;12.30;99.90;;;;;;5044974;28;20036;-72
2022/07/14 03:34:00;;;;;;;5.97;3.08;;;12.10;99.90;;;;;;5041561;28;20049;-71
2022/07/14 03:36:25;;;;;;;7.85;4.00;;;12.20;99.90;;;;;;5040885;28;20037;-71
2022/07/14 03:38:51;;;;;;;4.72;3.25;;;12.20;99.90;;;;;;5045766;28;20901;-71
2022/07/14 03:41:17;;;;;;;8.48;3.60;;;12.10;99.90;;;;;;5044760;28;20081;-72
2022/07/14 03:43:44;;;;;;;6.15;3.10;;;12.20;99.90;;;;;;5044627;28;20450;-71
2022/07/14 03:46:09;;;;;;;5.45;3.40;;;12.10;99.90;;;;;;5046024;28;20167;-71
2022/07/14 03:48:35;;;;;;;4.60;3.25;;;12.10;99.90;;;;;;5043527;28;20671;-71
2022/07/14 03:51:01;;;;;;;7.82;3.05;;;12.20;99.90;;;;;;5043017;28;20043;-71
2022/07/14 03:53:30;;;;;;;8.43;4.25;;;12.10;99.90;;;;;;5045485;28;20041;-71
2022/07/14 03:55:57;;;;;;;5.80;3.22;;;12.10;99.90;;;;;;5042425;28;20084;-70
2022/07/14 03:58:23;;;;;;;7.80;3.05;;;12.20;99.90;;;;;;5044858;28;20441;-71
2022/07/14 04:00:48;;;;;;;6.55;2.83;;;12.10;99.90;;;;;;5043942;28;20045;-72
2022/07/14 04:03:14;;;;;;;6.55;2.85;;;12.10;99.90;;;;;;5038960;28;20048;-72
2022/07/14 04:05:40;;;;;;;4.90;3.08;;;12.20;99.90;;;;;;5044124;28;20045;-71
2022/07/14 04:08:06;;;;;;;5.07;2.17;;;12.20;99.90;;;;;;5043225;28;20037;-72
2022/07/14 04:10:32;;;;;;;18.20;4.80;;;12.20;99.90;;;;;;5045137;28;20049;-72
2022/07/14 04:12:57;;;;;;;7.20;3.45;;;12.30;99.90;;;;;;5044331;28;20045;-72
2022/07/14 04:15:27;;;;;;;7.57;2.63;;;12.20;99.90;;;;;;5039173;28;20073;-72
2022/07/14 04:17:53;;;;;;;10.68;3.75;;;12.40;99.90;;;;;;5041436;28;20045;-72
2022/07/14 04:20:19;;;;;;;10.00;3.17;;;12.40;99.90;;;;;;5045989;28;20045;-73
2022/07/14 04:22:45;;;;;;;7.97;3.78;;;12.40;99.90;;;;;;5044803;28;20037;-72
2022/07/14 04:25:12;;;;;;;12.50;4.53;;;12.80;99.90;;;;;;5044965;28;20465;-72
2022/07/14 04:27:38;;;;;;;8.38;3.75;;;13.00;99.90;;;;;;5041939;28;20052;-70
2022/07/14 04:30:04;;;;;;;10.50;2.92;;;12.80;99.90;;;;;;5043931;28;20397;-71
2022/07/14 04:32:30;;;;;;;12.10;3.97;;;12.90;99.90;;;;;;5043439;28;20531;-71
2022/07/14 04:34:56;;;;;;;8.50;3.63;;;12.80;99.90;;;;;;5042189;28;20044;-71
2022/07/14 04:37:22;;;;;;;11.70;3.60;;;13.30;99.90;;;;;;5039899;28;20045;-71
2022/07/14 04:39:48;;;;;;;7.35;3.30;;;14.40;99.90;;;;;;5043263;28;20479;-71
2022/07/14 04:42:14;;;;;;;9.70;2.88;;;13.80;99.90;;;;;;5046061;28;20044;-72
2022/07/14 04:44:41;;;;;;;7.97;2.42;;;13.50;99.90;;;;;;5044001;28;20049;-71
2022/07/14 04:47:07;;;;;;;7.97;3.17;;;13.60;99.90;;;;;;5041982;28;20032;-71
2022/07/14 04:52:18;;;;;;;7.50;3.85;;;13.90;99.90;;;;;;5043774;28;20550;-71
2022/07/14 04:54:45;;;;;;;6.40;2.95;;;13.70;99.90;;;;;;5041290;28;20083;-72
2022/07/14 04:57:11;;;;;;;7.97;3.80;;;13.50;99.90;;;;;;5026247;28;20095;-72
2022/07/14 04:59:38;;;;;;;11.90;3.63;;;13.60;99.90;;;;;;5042375;28;20053;-72
2022/07/14 05:02:04;;;;;;;7.28;2.63;;;13.50;99.90;;;;;;5041390;28;20561;-72
2022/07/14 05:04:30;;;;;;;8.05;3.38;;;13.50;99.90;;;;;;5042490;28;20132;-72
2022/07/14 05:06:57;;;;;;;9.68;3.80;;;13.50;99.90;;;;;;5042433;28;20407;-72
2022/07/14 05:09:26;;;;;;;11.02;4.70;;;13.60;99.90;;;;;;5041173;28;20072;-72
2022/07/14 05:11:52;;;;;;;13.68;3.67;;;13.70;99.90;;;;;;5040812;28;20040;-72
2022/07/14 05:14:18;;;;;;;6.07;2.28;;;13.70;99.90;;;;;;5042193;28;20493;-71
2022/07/14 05:16:48;;;;;;;8.93;3.95;;;13.70;99.90;;;;;;5038339;28;20128;-72
2022/07/14 05:19:15;;;;;;;;;;;13.80;99.90;;;;;;5045328;28;20037;-71
2022/07/14 05:21:41;;;;;;;7.85;3.33;;;13.80;99.90;;;;;;5042610;28;19967;-72
2022/07/14 05:24:07;;;;;;;17.02;3.75;;;13.80;99.90;;;;;;5045313;28;20049;-72
2022/07/14 05:26:33;;;;;;;3.85;2.38;;;13.80;99.90;;;;;;5046754;28;20056;-71
2022/07/14 05:28:58;;;;;;;9.68;2.70;;;13.90;99.90;;;;;;5045550;28;20045;-72
2022/07/14 05:31:24;;;;;;;6.82;3.00;;;14.00;99.90;;;;;;5046862;28;20047;-72
2022/07/14 05:33:50;;;;;;;7.53;3.05;;;14.00;99.90;;;;;;5029099;28;20052;-72
2022/07/14 05:36:16;;;;;;;10.43;3.03;;;14.00;99.90;;;;;;5047658;28;20853;-75
2022/07/14 05:38:42;;;;;;;5.32;2.92;;;14.00;99.90;;;;;;5044533;28;20049;-72
2022/07/14 05:41:07;;;;;;;7.07;3.38;;;14.10;99.90;;;;;;5044525;28;20423;-72
2022/07/14 05:43:33;;;;;;;11.15;3.95;;;14.20;99.90;;;;;;5044790;28;20658;-72
2022/07/14 05:46:04;;;;;;;8.40;3.88;;;14.40;99.90;;;;;;5044889;28;20047;-72
2022/07/14 05:48:29;;;;;;;14.13;3.70;;;14.40;99.90;;;;;;5044543;28;20037;-72
2022/07/14 05:51:03;;;;;;;4.55;1.90;;;14.40;99.90;;;;;;5046912;28;20041;-72
2022/07/14 05:53:28;;;;;;;5.90;2.60;;;14.60;99.90;;;;;;5045306;28;20052;-72
2022/07/14 05:55:54;;;;;;;6.03;2.28;;;14.70;99.90;;;;;;5044033;28;20333;-72
2022/07/14 05:58:21;;;;;;;5.38;2.00;;;14.80;99.90;;;;;;5043880;28;20550;-72
2022/07/14 06:00:47;;;;;;;7.10;2.75;;;14.80;99.90;;;;;;5048969;28;20380;-72
2022/07/14 06:03:13;;;;;;;9.27;2.35;;;14.80;99.90;;;;;;5043920;28;20048;-73
2022/07/14 06:05:38;;;;;;;7.28;2.65;;;14.90;99.90;;;;;;5041059;28;20052;-72
2022/07/14 06:08:04;;;;;;;4.53;1.63;;;15.00;99.90;;;;;;5042219;28;20044;-72
2022/07/14 06:10:30;;;;;;;8.25;2.05;;;15.00;99.90;;;;;;5046049;28;20041;-72
2022/07/14 06:12:55;;;;;;;12.90;2.85;;;15.10;99.90;;;;;;5045061;28;20380;-73
2022/07/14 06:15:21;;;;;;;8.77;2.13;;;15.10;99.90;;;;;;5044401;28;20037;-73
2022/07/14 06:17:47;;;;;;;8.63;1.65;;;15.20;99.90;;;;;;5042736;28;20048;-72
2022/07/14 06:20:13;;;;;;;5.93;1.58;;;15.40;99.90;;;;;;5042159;28;20045;-72
2022/07/14 06:22:39;;;;;;;2.97;2.05;;;15.40;99.90;;;;;;5044765;28;20151;-72
2022/07/14 06:25:05;;;;;;;7.88;2.30;;;15.60;99.90;;;;;;5041324;28;20124;-72
2022/07/14 06:27:31;;;;;;;6.80;1.65;;;15.60;99.90;;;;;;5044641;28;20091;-73
2022/07/14 06:29:57;;;;;;;4.47;1.88;;;15.70;99.90;;;;;;5045480;28;20213;-73
2022/07/14 06:32:23;;;;;;;6.35;1.83;;;15.70;99.90;;;;;;5044951;28;20063;-73
2022/07/14 06:34:49;;;;;;;3.75;1.30;;;15.90;99.90;;;;;;5044732;28;20041;-74
2022/07/14 06:37:15;;;;;;;2.15;0.95;;;16.00;99.90;;;;;;5048091;28;20037;-71
2022/07/14 06:39:41;;;;;;;5.43;1.45;;;16.10;99.90;;;;;;5045632;28;20043;-72
2022/07/14 06:42:07;;;;;;;4.95;0.98;;;16.10;99.90;;;;;;5043903;28;20120;-72
2022/07/14 06:44:33;;;;;;;9.45;1.17;;;16.10;99.90;;;;;;5043560;28;20124;-74
2022/07/14 06:46:59;;;;;;;8.98;1.38;;;16.10;99.90;;;;;;5045681;28;20067;-74
2022/07/14 06:49:25;;;;;;;5.97;1.10;;;16.10;99.90;;;;;;5046255;28;20047;-73
2022/07/14 06:51:51;;;;;;;8.65;1.52;;;16.20;99.90;;;;;;5045631;28;20064;-72
2022/07/14 06:54:17;;;;;;;5.03;0.77;;;16.30;99.90;;;;;;5046583;28;20874;-73
2022/07/14 06:56:42;;;;;;;7.55;1.15;;;16.50;99.90;;;;;;5046942;28;20029;-73
2022/07/14 06:59:08;;;;;;;4.80;0.90;;;16.90;99.90;;;;;;5043422;28;20645;-73
2022/07/14 07:01:34;;;;;;;4.15;0.90;;;18.10;99.90;;;;;;5046070;28;20102;-73
2022/07/14 07:03:59;;;;;;;2.05;0.73;;;18.20;99.90;;;;;;5043885;28;20056;-73
2022/07/14 07:06:44;;;;;;;4.00;1.58;;;18.40;99.90;;;;;;5045493;28;20072;-73
2022/07/14 07:09:14;;;;;;;5.78;0.70;;;17.80;99.90;;;;;;5045937;28;20116;-74
2022/07/14 07:11:41;;;;;;;11.82;2.47;;;17.40;99.90;;;;;;5011234;28;20055;-72
2022/07/14 07:14:07;;;;;;;4.95;1.05;;;19.30;99.90;;;;;;5045957;28;20121;-73
2022/07/14 07:16:33;;;;;;;4.15;0.60;;;19.80;99.90;;;;;;5044178;28;20120;-72
2022/07/14 07:19:00;;;;;;;7.18;0.93;;;18.90;99.90;;;;;;5045517;28;20045;-73
2022/07/14 07:21:25;;;;;;;8.95;1.15;;;18.80;99.90;;;;;;5044926;28;20037;-72
2022/07/14 07:23:51;;;;;;;2.78;0.70;;;19.80;99.90;;;;;;5041304;28;20067;-73
2022/07/14 07:26:20;;;;;;;9.60;1.13;;;19.90;99.90;;;;;;5040214;28;20052;-74
2022/07/14 07:28:46;;;;;;;3.40;1.13;;;20.30;99.90;;;;;;5040002;28;20358;-74
2022/07/14 07:31:13;;;;;;;2.10;1.13;;;21.50;99.90;;;;;;5043847;28;20471;-74
2022/07/14 07:33:39;;;;;;;4.63;1.50;;;21.20;99.90;;;;;;5045947;28;20133;-73
2022/07/14 07:36:05;;;;;;;8.35;1.75;;;19.90;99.90;;;;;;5044653;28;20080;-73
2022/07/14 07:38:31;;;;;;;4.95;1.33;;;20.10;99.90;;;;;;5042720;28;20048;-74
2022/07/14 07:41:00;;;;;;;3.25;0.65;;;19.60;99.90;;;;;;5044465;28;20355;-73
2022/07/14 07:43:26;;;;;;;3.90;0.93;;;19.60;99.90;;;;;;5045284;28;20114;-73
2022/07/14 07:45:52;;;;;;;4.55;0.57;;;19.50;99.90;;;;;;5044152;28;20677;-72
2022/07/14 07:48:17;;;;;;;2.53;0.70;;;19.30;99.90;;;;;;5042323;28;20045;-74
2022/07/14 07:50:44;;;;;;;3.75;0.52;;;19.50;99.90;;;;;;5025709;28;20057;-74
2022/07/14 07:53:11;;;;;;;2.83;0.80;;;19.30;99.90;;;;;;5045353;28;20044;-75
2022/07/14 07:55:38;;;;;;;6.03;1.30;;;19.50;99.90;;;;;;5045288;28;20106;-75
2022/07/14 07:58:04;;;;;;;4.28;1.02;;;19.60;99.90;;;;;;5044188;28;20033;-75
2022/07/14 08:00:30;;;;;;;6.60;0.80;;;19.90;99.90;;;;;;5043330;28;20052;-76
2022/07/14 08:02:57;;;;;;;4.88;0.80;;;20.30;99.90;;;;;;5042558;28;20454;-74
2022/07/14 08:05:25;;;;;;;4.05;1.08;;;20.10;99.90;;;;;;5044681;28;20044;-74
2022/07/14 08:07:52;;;;;;;6.50;0.80;;;19.70;99.90;;;;;;5044189;28;20036;-74
2022/07/14 08:10:18;;;;;;;3.25;0.77;;;19.30;99.90;;;;;;5044062;28;20106;-75
2022/07/14 08:12:44;;;;;;;1.35;0.35;;;19.50;99.90;;;;;;5045681;28;20048;-76
2022/07/14 08:15:11;;;;;;;2.80;0.40;;;19.60;99.90;;;;;;5044977;28;20037;-74
2022/07/14 08:17:36;;;;;;;4.68;1.65;;;19.90;99.90;;;;;;5042744;28;20090;-74
2022/07/14 08:20:03;;;;;;;4.95;1.15;;;20.00;99.90;;;;;;5044421;28;20483;-74
2022/07/14 08:22:29;;;;;;;5.18;1.08;;;20.00;99.90;;;;;;5041369;28;20503;-73
2022/07/14 08:24:57;;;;;;;6.07;0.88;;;19.50;99.90;;;;;;5044815;28;20053;-75
2022/07/14 08:27:23;;;;;;;4.00;0.75;;;20.00;99.90;;;;;;5045901;28;20045;-74
2022/07/14 08:29:49;;;;;;;2.22;0.40;;;20.00;99.90;;;;;;5042682;28;20403;-75
2022/07/14 08:32:17;;;;;;;1.52;0.57;;;20.10;99.90;;;;;;5043158;28;20059;-73
2022/07/14 08:34:43;;;;;;;1.25;0.40;;;19.80;99.90;;;;;;5045618;28;20095;-75
2022/07/14 08:37:09;;;;;;;2.58;0.60;;;19.50;99.90;;;;;;5044756;28;20053;-74
2022/07/14 08:39:34;;;;;;;0.95;0.40;;;19.80;99.90;;;;;;5044677;28;20175;-75
2022/07/14 08:42:01;;;;;;;3.45;0.70;;;19.80;99.90;;;;;;5042450;28;20060;-75
2022/07/14 08:44:28;;;;;;;4.22;0.70;;;19.90;99.90;;;;;;5043362;28;20053;-74
2022/07/14 08:46:55;;;;;;;4.78;0.50;;;19.70;99.90;;;;;;5042224;28;20133;-75
2022/07/14 08:49:21;;;;;;;6.10;1.17;;;19.80;99.90;;;;;;5043219;28;20124;-74
2022/07/14 08:51:49;;;;;;;2.08;0.57;;;19.60;99.90;;;;;;5043382;28;20037;-76
2022/07/14 08:54:15;;;;;;;4.07;0.75;;;19.30;99.90;;;;;;5039313;28;20100;-76
2022/07/14 08:56:41;;;;;;;4.95;0.88;;;19.30;99.90;;;;;;5035405;28;20033;-76
2022/07/14 08:59:08;;;;;;;5.75;1.25;;;19.30;99.90;;;;;;5038442;28;20116;-76
2022/07/14 09:01:35;;;;;;;3.42;0.70;;;19.40;99.90;;;;;;5041584;28;20100;-76
2022/07/14 09:04:02;;;;;;;4.10;1.33;;;19.60;99.90;;;;;;5048638;28;20403;-76
2022/07/14 09:06:52;;;;;;;4.65;0.70;;;19.30;99.90;;;;;;5049989;28;20133;-76
2022/07/14 09:09:24;;;;;;;3.80;0.65;;;19.70;99.90;;;;;;5048082;28;20122;-76
2022/07/14 09:12:06;;;;;;;4.47;0.73;;;19.70;99.90;;;;;;5048637;28;20102;-76
2022/07/14 09:17:20;;;;;;;3.10;0.50;;;19.90;99.90;;;;;;5044895;28;20045;-77
2022/07/14 09:20:06;;;;;;;3.33;0.35;;;19.70;99.90;;;;;;5049141;28;20049;-77
2022/07/14 09:22:33;;;;;;;1.95;0.60;;;19.80;99.90;;;;;;5041760;28;20541;-77
2022/07/14 09:25:01;;;;;;;4.60;0.70;;;19.70;99.90;;;;;;5046822;28;20407;-76
2022/07/14 09:27:27;;;;;;;4.35;0.88;;;20.00;99.90;;;;;;5049395;28;20040;-76
2022/07/14 09:29:56;;;;;;;3.80;0.93;;;20.00;99.90;;;;;;5040562;28;20053;-76
2022/07/14 09:33:10;;;;;;;1.75;0.77;;;19.90;99.90;;;;;;5043485;28;20037;-76
2022/07/14 09:35:36;;;;;;;1.52;0.52;;;20.00;99.90;;;;;;5015943;28;20052;-76
2022/07/14 09:38:23;;;;;;;3.83;0.38;;;19.50;99.90;;;;;;5046083;28;20921;-76
2022/07/14 09:40:50;;;;;;;2.30;0.45;;;19.40;99.90;;;;;;5047652;28;20045;-75
2022/07/14 09:43:17;;;;;;;2.35;0.50;;;19.50;99.90;;;;;;5037785;28;20052;-80
2022/07/14 09:45:45;;;;;;;1.85;0.47;;;19.70;99.90;;;;;;5046057;28;20045;-78
2022/07/14 09:48:19;;;;;;;2.00;0.60;;;19.60;99.90;;;;;;5028811;28;20110;-78
2022/07/14 09:51:01;;;;;;;5.53;0.98;;;19.90;99.90;;;;;;5042803;28;20408;-79
2022/07/14 09:53:34;;;;;;;4.60;1.48;;;20.00;99.90;;;;;;5036656;28;20403;-77
2022/07/14 09:56:03;;;;;;;2.50;0.47;;;19.60;99.90;;;;;;5041680;28;20052;-78
2022/07/14 09:58:43;;;;;;;3.57;1.23;;;19.70;99.90;;;;;;5049358;28;20044;-79
2022/07/14 10:01:14;;;;;;;0.85;0.30;;;19.70;99.90;;;;;;5048008;28;20048;-79
2022/07/14 10:03:42;;;;;;;1.95;0.20;;;19.70;99.90;;;;;;5047561;28;20079;-78
2022/07/14 10:06:10;;;;;;;1.40;0.40;;;19.60;99.90;;;;;;5048600;28;20726;-79
2022/07/14 10:08:43;;;;;;;4.85;0.95;;;19.70;99.90;;;;;;5048943;28;20044;-77
2022/07/14 10:11:10;;;;;;;5.82;0.70;;;19.70;99.90;;;;;;5045594;28;20649;-79
2022/07/14 10:13:37;;;;;;;3.92;0.40;;;19.70;99.90;;;;;;5041002;28;20041;-78
2022/07/14 10:16:03;;;;;;;2.28;0.55;;;19.60;99.90;;;;;;5045301;28;20049;-77
2022/07/14 10:18:29;;;;;;;1.10;0.68;;;19.70;99.90;;;;;;5046515;28;20081;-77
2022/07/14 10:20:57;;;;;;;4.50;0.43;;;19.60;99.90;;;;;;5023676;28;20053;-79
2022/07/14 10:23:24;;;;;;;3.25;1.02;;;19.70;99.90;;;;;;5044922;28;20562;-78
2022/07/14 10:25:56;;;;;;;1.55;0.52;;;19.80;99.90;;;;;;5041721;28;20044;-76
2022/07/14 10:28:22;;;;;;;6.70;1.17;;;20.10;99.90;;;;;;5048095;28;20045;-77
2022/07/14 10:31:20;;;;;;;1.58;0.50;;;20.30;99.90;;;;;;5044097;28;20124;-77
2022/07/14 10:33:55;;;;;;;5.78;0.65;;;20.10;99.90;;;;;;5041786;28;20139;-79
2022/07/14 10:36:43;;;;;;;2.28;0.30;;;20.20;99.90;;;;;;5030592;28;20128;-78
2022/07/14 10:39:24;;;;;;;6.18;0.52;;;20.20;99.90;;;;;;5044453;28;20041;-78
2022/07/14 10:41:59;;;;;;;2.28;0.55;;;20.20;99.90;;;;;;5043572;28;20045;-77
2022/07/14 10:44:29;;;;;;;2.67;0.43;;;20.00;99.90;;;;;;5044087;28;20128;-76
2022/07/14 10:47:17;;;;;;;2.80;0.50;;;20.10;99.90;;;;;;5045946;28;20176;-76
2022/07/14 10:50:06;;;;;;;2.90;0.43;;;19.90;99.90;;;;;;5043855;28;20037;-76
2022/07/14 10:52:35;;;;;;;1.67;0.68;;;20.00;99.90;;;;;;5042256;28;20084;-77
2022/07/14 10:55:14;;;;;;;5.73;0.70;;;19.90;99.90;;;;;;5043580;28;20100;-76
2022/07/14 10:58:00;;;;;;;2.95;0.50;;;20.00;99.90;;;;;;5043088;28;20123;-76
2022/07/14 11:00:41;;;;;;;6.22;0.57;;;20.00;99.90;;;;;;5045630;28;20045;-78
2022/07/14 11:03:26;;;;;;;3.10;0.57;;;19.80;99.90;;;;;;5046003;28;20662;-77
2022/07/14 11:06:06;;;;;;;2.00;1.13;;;19.90;99.90;;;;;;5028283;28;20048;-76
2022/07/14 11:08:32;;;;;;;;;;;19.80;99.90;;;;;;5035732;28;20140;-75
2022/07/14 11:11:00;;;;;;;2.88;1.05;;;19.70;99.90;;;;;;5044757;28;20416;-75
2022/07/14 11:13:26;;;;;;;5.25;0.47;;;19.80;99.90;;;;;;5044844;28;20403;-77
2022/07/14 11:15:55;;;;;;;3.10;0.65;;;19.70;99.90;;;;;;5042477;28;20045;-76
2022/07/14 11:18:21;;;;;;;4.97;0.52;;;19.60;99.90;;;;;;5024232;28;20049;-77
2022/07/14 11:21:06;;;;;;;3.63;0.45;;;19.70;99.90;;;;;;5042617;28;20063;-75
2022/07/14 11:23:56;;;;;;;3.50;0.95;;;19.90;99.90;;;;;;5043749;28;20044;-75
2022/07/14 11:26:40;;;;;;;4.18;1.30;;;19.80;99.90;;;;;;5028388;28;20048;-75
2022/07/14 11:29:09;;;;;;;3.25;0.77;;;20.30;99.90;;;;;;5043807;28;20048;-75
2022/07/14 11:31:52;;;;;;;0.85;0.38;;;20.40;99.90;;;;;;5043237;28;20559;-75
2022/07/14 11:37:08;;;;;;;1.67;0.50;;;20.40;99.90;;;;;;5046645;28;20056;-76
2022/07/14 11:39:35;;;;;;;5.85;1.13;;;20.80;99.90;;;;;;5039756;28;20112;-74
2022/07/14 11:42:08;;;;;;;1.58;0.45;;;21.00;99.90;;;;;;5043377;28;20049;-76
2022/07/14 11:44:40;;;;;;;3.13;0.65;;;21.00;99.90;;;;;;5042066;28;20048;-76
2022/07/14 11:47:11;;;;;;;2.35;0.77;;;20.90;99.90;;;;;;5046095;28;20136;-76
2022/07/14 11:49:37;;;;;;;1.65;0.55;;;21.10;99.90;;;;;;5044980;28;20051;-76
2022/07/14 11:52:05;;;;;;;3.20;0.40;;;21.10;99.90;;;;;;5046105;28;20053;-75
2022/07/14 11:54:31;;;;;;;3.60;0.65;;;21.00;99.90;;;;;;5043767;28;20562;-76
2022/07/14 11:57:05;;;;;;;3.58;0.52;;;21.20;99.90;;;;;;5045307;28;20048;-76
2022/07/14 11:59:35;;;;;;;6.82;0.50;;;21.60;99.90;;;;;;5042726;28;20435;-76
2022/07/14 12:02:14;;;;;;;1.60;0.57;;;21.30;99.90;;;;;;5038090;28;20102;-76
2022/07/14 12:04:49;;;;;;;3.25;0.52;;;21.30;99.90;;;;;;5044590;28;20048;-76
2022/07/14 12:07:15;;;;;;;1.63;0.40;;;21.30;99.90;;;;;;5045577;28;20045;-76
2022/07/14 12:09:42;;;;;;;3.50;0.65;;;21.30;99.90;;;;;;5043578;28;20447;-77
2022/07/14 12:12:08;;;;;;;4.20;1.95;;;21.30;99.90;;;;;;5042264;28;20068;-75
2022/07/14 12:14:43;;;;;;;6.68;0.70;;;21.10;99.90;;;;;;5044125;28;20149;-76
2022/07/14 12:17:08;;;;;;;3.40;0.57;;;20.70;99.90;;;;;;5036925;28;20045;-76
2022/07/14 12:19:36;;;;;;;2.38;1.00;;;20.80;99.90;;;;;;5041628;28;20084;-75
2022/07/14 12:22:04;;;;;;;1.17;0.38;;;21.20;99.90;;;;;;5037830;28;20049;-76
2022/07/14 12:24:31;;;;;;;1.33;0.40;;;21.70;99.90;;;;;;5036561;28;20415;-76
2022/07/14 12:26:58;;;;;;;3.90;0.50;;;21.50;99.90;;;;;;5042412;28;20041;-76
2022/07/14 12:29:24;;;;;;;4.47;0.73;;;21.80;99.90;;;;;;5043707;28;20590;-76
2022/07/14 12:31:50;;;;;;;2.00;0.52;;;21.80;99.90;;;;;;5042517;28;20037;-76
2022/07/14 12:34:16;;;;;;;2.45;0.50;;;22.10;99.90;;;;;;5044281;28;20827;-75
2022/07/14 12:36:42;;;;;;;1.15;0.40;;;22.20;99.90;;;;;;5046182;28;20041;-76
2022/07/14 12:39:09;;;;;;;2.53;0.82;;;22.40;99.90;;;;;;5044005;28;20415;-75
2022/07/14 12:41:37;;;;;;;4.13;0.40;;;22.00;99.90;;;;;;5042697;28;20892;-75
2022/07/14 12:44:10;;;;;;;1.13;0.40;;;21.60;99.90;;;;;;5045138;28;20052;-77
2022/07/14 12:46:36;;;;;;;2.80;0.52;;;21.50;99.90;;;;;;5050149;28;20163;-76
2022/07/14 12:49:05;;;;;;;3.50;0.40;;;21.30;99.90;;;;;;5048443;28;20091;-76
2022/07/14 12:51:37;;;;;;;2.53;0.75;;;21.40;99.90;;;;;;5048078;28;20053;-76
2022/07/14 12:54:16;;;;;;;2.60;0.40;;;21.80;99.90;;;;;;5047594;28;20085;-76
2022/07/14 12:56:53;;;;;;;4.88;0.68;;;21.60;99.90;;;;;;5045462;28;20049;-75
2022/07/14 12:59:20;;;;;;;2.72;0.32;;;21.40;99.90;;;;;;5034195;28;20155;-75
2022/07/14 13:01:53;;;;;;;4.00;0.88;;;21.50;99.90;;;;;;5051931;28;20036;-77
2022/07/14 13:04:52;;;;;;;3.17;1.30;;;21.20;99.90;;;;;;5052861;28;20045;-77